Terminal Aerodrome Forecast
Issued by NWS Chicago, IL

Home | Current Version | Previous Version | Graphics & Text | Print | Product List | Glossary On
Versions: 1 2 3 4 5 6 7 8 9 10 11 12 13 14 15 16 17 18 19 20 21 22 23 24 25 26 27 28 29
000
FTUS43 KLOT 211120
TAFRFD
TAF
KRFD 211120Z 2112/2212 VRB05KT P6SM SCT035 BKN090 OVC250
     FM211500 12007KT P6SM SCT040 BKN100
     FM211800 14009KT P6SM SCT050 BKN150 PROB30 2121/2201 4SM TSRA
      OVC040CB
     FM220500 18006KT P6SM BKN100
      TEMPO 2208/2212 3SM TSRA BKN035CB=

USA.gov is the U.S. government's official web portal to all federal, state and local government web resources and services.